Allamuchy, New Jersey
Current Conditions -  °F | °C
As of 4:53 AM on Monday 26 Jan 2015 (Local Time) from KFWN Reporting Station
Overcast Overcast  
Wind Chill:   Ceiling: 4100
Heat Index: 18°   Visibility: 10mi
Dew Point:   Wind: 13mph
Humidity: 52%   Direction: 40°NE
Pressure: 29.99"   Gusts: NA
Location:  40.92°N, 74.81°W
Report Text: KFWN 260953Z AUTO 04011KT 10SM OVC041 M08/M16 A2999 RMK AO2 SNB09E37 SLP160 P0000 T10781161
Loading
Personal Weather Stations






























Interactive Weather Map New forecast layout! Learn more

10-Day Weather Forecast

Advertisements
Track Severe Weather on mobile